Time;durP1;ratioP1;P1;durP2;ratioP2;P2;SDS_P1;SDS_P2;PMS_P1;PMS_P2;Temp;Humidity;BMP_temperature;BMP_pressure;BME280_temperature;BME280_humidity;BME280_pressure;Samples;Min_cycle;Max_cycle;Signal;HPM_P1;HPM_P2
2023/08/28 00:01:35;;;;;;;21.07;20.37;;;16.10;99.90;;;;;;5134343;27;20242;-64
2023/08/28 00:04:02;;;;;;;20.47;19.77;;;16.10;99.90;;;;;;5133567;27;20197;-63
2023/08/28 00:06:29;;;;;;;19.77;19.07;;;16.00;99.90;;;;;;5133739;27;20213;-63
2023/08/28 00:08:56;;;;;;;18.40;17.70;;;16.00;99.90;;;;;;5133177;27;20231;-64
2023/08/28 00:11:23;;;;;;;21.00;20.20;;;16.00;99.90;;;;;;5134855;27;20699;-65
2023/08/28 00:13:49;;;;;;;17.80;17.20;;;16.00;99.90;;;;;;5137623;27;20221;-66
2023/08/28 00:16:18;;;;;;;21.60;20.80;;;16.00;99.90;;;;;;5136956;27;20802;-66
2023/08/28 00:18:45;;;;;;;18.07;17.37;;;15.90;99.90;;;;;;5137078;27;20221;-64
2023/08/28 00:21:11;;;;;;;18.57;17.97;;;15.90;99.90;;;;;;5134216;27;20668;-64
2023/08/28 00:23:38;;;;;;;22.77;21.97;;;15.80;99.90;;;;;;5133313;27;20201;-63
2023/08/28 00:26:05;;;;;;;21.50;20.77;;;15.90;99.90;;;;;;5134417;27;20208;-63
2023/08/28 00:28:32;;;;;;;17.47;16.87;;;15.90;99.90;;;;;;5133395;27;20312;-63
2023/08/28 00:30:59;;;;;;;18.53;17.93;;;15.90;99.90;;;;;;5131981;27;20215;-65
2023/08/28 00:33:27;;;;;;;22.83;22.03;;;16.00;99.90;;;;;;5132419;27;20651;-64
2023/08/28 00:35:53;;;;;;;17.53;16.93;;;15.90;99.90;;;;;;5132411;27;20300;-64
2023/08/28 00:38:20;;;;;;;19.23;18.53;;;16.00;99.90;;;;;;5132349;27;20246;-65
2023/08/28 00:40:47;;;;;;;18.33;17.70;;;16.00;99.90;;;;;;5132002;27;20205;-64
2023/08/28 00:43:14;;;;;;;17.23;16.63;;;15.90;99.90;;;;;;5131766;27;20211;-63
2023/08/28 00:45:42;;;;;;;16.57;15.97;;;15.90;99.90;;;;;;5132065;27;20219;-65
2023/08/28 00:48:11;;;;;;;15.97;15.40;;;15.90;99.90;;;;;;5131565;27;20611;-66
2023/08/28 00:50:39;;;;;;;17.93;17.23;;;15.80;99.90;;;;;;5132126;27;20204;-65
2023/08/28 00:53:06;;;;;;;17.83;17.23;;;15.90;99.90;;;;;;5131863;27;20213;-65
2023/08/28 00:55:36;;;;;;;18.97;18.27;;;15.90;99.90;;;;;;5132013;27;20264;-65
2023/08/28 00:58:03;;;;;;;17.53;16.93;;;15.90;99.90;;;;;;5131693;27;20304;-64
2023/08/28 01:00:30;;;;;;;19.77;19.07;;;15.90;99.90;;;;;;5131944;27;20673;-65
2023/08/28 01:40:05;;;;;;;21.87;21.10;;;16.00;99.90;;;;;;5129794;28;20230;-63
2023/08/28 01:42:34;;;;;;;18.47;17.77;;;15.90;99.90;;;;;;5131056;28;20668;-64
2023/08/28 01:45:03;;;;;;;21.07;20.37;;;16.00;99.90;;;;;;5131433;28;20221;-64
2023/08/28 01:47:30;;;;;;;19.23;18.60;;;15.90;99.90;;;;;;5149805;22;20294;-65
2023/08/28 01:49:58;;;;;;;19.17;18.50;;;15.90;99.90;;;;;;5091406;28;20269;-66
2023/08/28 01:52:25;;;;;;;20.33;19.47;;;16.10;99.90;;;;;;5091182;28;20587;-66
2023/08/28 01:54:51;;;;;;;20.50;19.77;;;16.00;99.90;;;;;;5092239;28;20226;-66
2023/08/28 01:57:20;;;;;;;18.77;18.13;;;15.90;99.90;;;;;;5091531;28;20248;-66
2023/08/28 01:59:46;;;;;;;20.17;19.47;;;16.00;99.90;;;;;;5095333;28;20215;-67
2023/08/28 02:02:13;;;;;;;20.33;19.63;;;15.90;99.90;;;;;;5096946;28;20203;-65
2023/08/28 02:04:40;;;;;;;19.83;19.13;;;15.90;99.90;;;;;;5105224;28;20195;-67
2023/08/28 02:07:07;;;;;;;17.87;17.27;;;15.90;99.90;;;;;;5101104;28;20293;-68
2023/08/28 02:09:34;;;;;;;18.83;18.20;;;15.90;99.90;;;;;;5098817;28;20218;-67
2023/08/28 02:12:01;;;;;;;19.03;18.33;;;15.90;99.90;;;;;;5090908;28;20212;-67
2023/08/28 02:14:29;;;;;;;20.07;19.37;;;15.90;99.90;;;;;;5091090;28;20231;-66
2023/08/28 02:16:56;;;;;;;19.37;18.70;;;15.90;99.90;;;;;;5090834;28;20737;-64
2023/08/28 02:19:22;;;;;;;16.37;15.77;;;15.90;99.90;;;;;;5090536;28;20265;-64
2023/08/28 02:21:49;;;;;;;18.20;17.60;;;15.90;99.90;;;;;;5090364;28;20673;-65
2023/08/28 02:24:16;;;;;;;16.87;16.27;;;15.80;99.90;;;;;;5090787;28;20209;-66
2023/08/28 02:26:43;;;;;;;17.93;17.33;;;15.80;99.90;;;;;;5091162;28;20203;-66
2023/08/28 02:29:10;;;;;;;17.13;16.53;;;15.70;99.90;;;;;;5090575;28;20226;-66
2023/08/28 02:31:38;;;;;;;19.40;18.70;;;15.70;99.90;;;;;;5090273;28;20207;-67
2023/08/28 02:34:06;;;;;;;19.70;19.00;;;15.70;99.90;;;;;;5090821;28;20221;-67
2023/08/28 02:36:32;;;;;;;19.13;18.47;;;15.70;99.90;;;;;;5105836;28;20214;-66
2023/08/28 02:38:59;;;;;;;16.87;16.27;;;15.70;99.90;;;;;;5093880;28;20592;-66
2023/08/28 02:41:26;;;;;;;20.47;19.77;;;15.80;99.90;;;;;;5103040;28;20293;-65
2023/08/28 02:43:53;;;;;;;16.77;16.17;;;15.80;99.90;;;;;;5103254;28;20298;-66
2023/08/28 02:46:20;;;;;;;16.10;15.60;;;15.80;99.90;;;;;;5094377;28;20257;-65
2023/08/28 02:48:48;;;;;;;17.20;16.60;;;15.80;99.90;;;;;;5094166;28;20238;-65
2023/08/28 02:51:15;;;;;;;19.43;18.70;;;15.80;99.90;;;;;;5093815;28;20211;-65
2023/08/28 02:53:41;;;;;;;17.50;16.90;;;15.80;99.90;;;;;;5094132;28;20670;-68
2023/08/28 02:56:25;;;;;;;16.77;16.17;;;15.80;99.90;;;;;;5094346;28;20673;-67
2023/08/28 02:58:52;;;;;;;18.10;17.50;;;15.70;99.90;;;;;;5094368;28;20226;-66
2023/08/28 03:01:19;;;;;;;18.53;17.93;;;15.90;99.90;;;;;;5096775;28;20206;-66
2023/08/28 03:03:48;;;;;;;18.03;17.43;;;15.60;99.90;;;;;;5095367;28;20339;-66
2023/08/28 03:06:15;;;;;;;19.50;18.83;;;15.60;99.90;;;;;;5093921;28;20298;-66
2023/08/28 03:08:42;;;;;;;18.80;18.17;;;15.60;99.90;;;;;;5094034;28;20233;-65
2023/08/28 03:11:08;;;;;;;18.90;18.27;;;15.70;99.90;;;;;;5094438;28;20213;-65
2023/08/28 03:13:35;;;;;;;20.67;19.97;;;15.70;99.90;;;;;;5094497;28;20218;-66
2023/08/28 03:16:02;;;;;;;19.88;19.17;;;15.80;99.90;;;;;;5093531;28;20706;-65
2023/08/28 03:18:29;;;;;;;20.53;19.83;;;15.80;99.90;;;;;;5093662;28;20225;-67
2023/08/28 03:20:57;;;;;;;20.60;19.90;;;15.80;99.90;;;;;;5093264;28;20203;-66
2023/08/28 03:23:24;;;;;;;20.77;20.07;;;15.80;99.90;;;;;;5093587;28;20211;-65
2023/08/28 03:25:51;;;;;;;20.63;19.90;;;15.80;99.90;;;;;;5093778;28;20207;-66
2023/08/28 03:28:18;;;;;;;19.73;19.03;;;15.80;99.90;;;;;;5093162;28;20817;-65
2023/08/28 03:30:45;;;;;;;18.10;17.23;;;15.80;99.90;;;;;;5093365;28;20481;-64
2023/08/28 03:33:11;;;;;;;17.70;17.10;;;15.80;99.90;;;;;;5097172;28;20232;-64
2023/08/28 03:35:38;;;;;;;18.57;17.93;;;15.80;99.90;;;;;;5093300;28;20242;-67
2023/08/28 03:38:07;;;;;;;20.70;20.00;;;15.80;99.90;;;;;;5093238;28;20222;-67
2023/08/28 03:40:36;;;;;;;18.07;17.43;;;15.80;99.90;;;;;;5093522;28;20282;-66
2023/08/28 03:43:03;;;;;;;18.73;18.07;;;15.70;99.90;;;;;;5096228;28;20742;-66
2023/08/28 03:45:30;;;;;;;17.87;17.17;;;15.70;99.90;;;;;;5097134;28;20289;-65
2023/08/28 03:47:57;;;;;;;17.47;16.87;;;15.60;99.90;;;;;;5094962;28;20243;-66
2023/08/28 03:50:28;;;;;;;17.80;17.20;;;15.60;99.90;;;;;;5093621;28;20202;-66
2023/08/28 03:52:55;;;;;;;18.10;17.40;;;15.50;99.90;;;;;;5092911;28;20209;-66
2023/08/28 03:55:24;;;;;;;17.40;16.80;;;15.50;99.90;;;;;;5092876;28;20261;-66
2023/08/28 03:57:51;;;;;;;18.60;18.00;;;15.60;99.90;;;;;;5092783;28;20222;-67
2023/08/28 04:00:18;;;;;;;18.73;18.03;;;15.60;99.90;;;;;;5095153;28;20202;-66
2023/08/28 04:02:45;;;;;;;17.23;16.63;;;15.60;99.90;;;;;;5101757;28;20203;-67
2023/08/28 04:05:12;;;;;;;19.73;19.05;;;15.60;99.90;;;;;;5102257;28;20199;-67
2023/08/28 04:07:39;;;;;;;19.57;18.87;;;15.60;99.90;;;;;;5099871;28;20222;-67
2023/08/28 04:10:07;;;;;;;19.10;18.40;;;15.60;99.90;;;;;;5098073;28;20199;-65
2023/08/28 04:12:35;;;;;;;21.40;20.67;;;15.60;99.90;;;;;;5093028;28;20289;-66
2023/08/28 04:15:02;;;;;;;21.10;20.40;;;15.60;99.90;;;;;;5092937;28;20617;-66
2023/08/28 04:17:29;;;;;;;18.93;18.23;;;15.60;99.90;;;;;;5092486;28;20225;-65
2023/08/28 04:19:56;;;;;;;17.23;16.63;;;15.60;99.90;;;;;;5092523;28;20208;-60
2023/08/28 04:22:24;;;;;;;14.17;13.67;;;16.00;99.90;;;;;;5091918;28;20666;-60
2023/08/28 04:24:52;;;;;;;15.43;14.87;;;16.60;99.90;;;;;;5092048;28;20670;-60
2023/08/28 04:27:19;;;;;;;13.67;13.17;;;17.10;99.90;;;;;;5092361;28;20210;-60
2023/08/28 04:29:47;;;;;;;13.33;12.73;;;17.50;99.90;;;;;;5092450;28;20584;-60
2023/08/28 04:32:14;;;;;;;12.80;12.30;;;17.50;99.90;;;;;;5092032;28;20300;-61
2023/08/28 04:34:41;;;;;;;15.53;14.97;;;17.80;99.90;;;;;;5095131;28;20225;-61
2023/08/28 04:37:08;;;;;;;11.53;11.13;;;18.00;99.90;;;;;;5098682;28;20217;-60
2023/08/28 04:39:35;;;;;;;11.20;10.63;;;18.00;99.90;;;;;;5093157;28;20295;-61
2023/08/28 04:42:01;;;;;;;10.73;10.33;;;18.10;99.90;;;;;;5092042;28;20198;-61
2023/08/28 04:44:28;;;;;;;11.17;10.77;;;18.20;99.90;;;;;;5092013;28;20206;-62
2023/08/28 04:46:59;;;;;;;11.17;10.77;;;18.30;99.90;;;;;;5092120;28;20202;-61
2023/08/28 04:49:26;;;;;;;11.23;10.83;;;18.40;99.90;;;;;;5092126;28;20488;-63
2023/08/28 04:51:53;;;;;;;10.57;10.20;;;18.40;99.90;;;;;;5091706;28;20301;-62
2023/08/28 04:54:20;;;;;;;11.20;10.80;;;18.40;99.90;;;;;;5092300;28;20293;-62
2023/08/28 04:56:47;;;;;;;10.80;10.40;;;18.50;99.90;;;;;;5091922;28;20198;-62
2023/08/28 04:59:13;;;;;;;11.40;11.00;;;18.50;99.90;;;;;;5092317;28;20230;-62
2023/08/28 05:01:40;;;;;;;11.60;11.20;;;18.50;99.90;;;;;;5091947;28;20202;-62
2023/08/28 05:04:09;;;;;;;11.17;10.77;;;18.60;99.90;;;;;;5092263;28;20247;-62
2023/08/28 05:06:35;;;;;;;9.40;9.10;;;18.60;99.90;;;;;;5091727;28;20203;-62
2023/08/28 05:09:03;;;;;;;10.50;10.20;;;18.60;99.90;;;;;;5091950;28;20229;-62
2023/08/28 05:11:30;;;;;;;11.30;10.90;;;18.70;99.90;;;;;;5091462;28;20210;-62
2023/08/28 05:13:57;;;;;;;10.87;10.47;;;18.70;99.90;;;;;;5092121;28;20689;-63
2023/08/28 05:16:24;;;;;;;11.20;10.80;;;18.70;99.90;;;;;;5092123;28;20263;-62
2023/08/28 05:18:51;;;;;;;9.73;9.32;;;18.70;99.90;;;;;;5091653;28;20232;-62
2023/08/28 05:21:19;;;;;;;12.07;11.67;;;18.60;99.90;;;;;;5091254;28;20207;-62
2023/08/28 05:23:46;;;;;;;10.43;10.02;;;18.60;99.90;;;;;;5092410;28;20202;-62
2023/08/28 05:26:13;;;;;;;10.27;9.87;;;18.40;99.90;;;;;;5092030;28;20209;-63
2023/08/28 05:28:40;;;;;;;11.90;11.40;;;18.50;99.90;;;;;;5092428;28;20714;-66
2023/08/28 05:31:07;;;;;;;10.73;10.33;;;18.40;99.90;;;;;;5091237;28;20636;-65
2023/08/28 05:33:36;;;;;;;11.17;10.77;;;18.00;99.90;;;;;;5091830;28;20202;-66
2023/08/28 05:36:02;;;;;;;12.50;12.10;;;17.60;99.90;;;;;;5091672;28;20249;-65
2023/08/28 05:38:31;;;;;;;11.70;11.30;;;17.40;99.90;;;;;;5091548;28;20230;-64
2023/08/28 05:40:58;;;;;;;11.25;10.85;;;17.20;99.90;;;;;;5091242;28;20202;-65
2023/08/28 05:43:25;;;;;;;12.17;11.77;;;17.10;99.90;;;;;;5091602;28;20741;-66
2023/08/28 05:45:51;;;;;;;12.77;12.27;;;16.90;99.90;;;;;;5091376;28;20206;-65
2023/08/28 05:48:18;;;;;;;14.27;13.70;;;16.80;99.90;;;;;;5091179;28;20234;-65
2023/08/28 05:50:45;;;;;;;12.68;12.27;;;16.80;99.90;;;;;;5091542;28;20297;-65
2023/08/28 05:53:12;;;;;;;14.43;13.93;;;16.70;99.90;;;;;;5091025;28;20210;-65
2023/08/28 05:55:40;;;;;;;15.13;14.63;;;16.70;99.90;;;;;;5089989;28;20757;-66
2023/08/28 05:58:07;;;;;;;15.47;14.97;;;16.80;99.90;;;;;;5090427;28;20222;-65
2023/08/28 06:00:39;;;;;;;16.33;15.80;;;16.60;99.90;;;;;;5091969;28;20237;-65
2023/08/28 06:03:06;;;;;;;14.83;14.33;;;16.50;99.90;;;;;;5091947;28;20212;-65
2023/08/28 06:05:33;;;;;;;15.75;15.23;;;16.50;99.90;;;;;;5097398;28;20195;-65
2023/08/28 06:08:00;;;;;;;20.93;20.17;;;16.40;99.90;;;;;;5096381;28;20309;-65
2023/08/28 06:10:29;;;;;;;19.30;18.57;;;16.30;99.90;;;;;;5103620;28;20216;-66
2023/08/28 06:12:57;;;;;;;19.07;18.40;;;16.30;99.90;;;;;;5099879;28;20659;-66
2023/08/28 06:15:25;;;;;;;18.47;17.77;;;16.30;99.90;;;;;;5105317;28;20214;-66
2023/08/28 06:17:51;;;;;;;17.30;16.63;;;16.40;99.90;;;;;;5102118;28;20321;-66
2023/08/28 06:20:18;;;;;;;19.67;19.00;;;16.20;99.90;;;;;;5098700;28;20228;-66
2023/08/28 06:22:45;;;;;;;20.70;20.00;;;16.30;99.90;;;;;;5086703;28;20599;-67
2023/08/28 06:25:12;;;;;;;19.90;19.23;;;16.30;99.90;;;;;;5093443;28;20199;-67
2023/08/28 06:27:39;;;;;;;20.43;19.73;;;16.30;99.90;;;;;;5094149;28;20275;-66
2023/08/28 06:30:10;;;;;;;22.33;21.43;;;16.20;99.90;;;;;;5093487;28;20213;-65
2023/08/28 06:32:37;;;;;;;19.03;18.40;;;16.20;99.90;;;;;;5094616;28;20205;-65
2023/08/28 06:35:04;;;;;;;22.40;21.60;;;16.30;99.90;;;;;;5103620;28;20220;-66
2023/08/28 06:37:31;;;;;;;19.00;18.33;;;16.30;99.90;;;;;;5095189;28;20242;-65
2023/08/28 06:39:57;;;;;;;21.80;21.03;;;16.20;99.90;;;;;;5107657;28;20206;-65
2023/08/28 06:42:24;;;;;;;20.20;19.53;;;16.30;99.90;;;;;;5090449;28;20202;-65
2023/08/28 06:44:52;;;;;;;21.77;20.97;;;16.30;99.90;;;;;;5092839;28;20702;-67
2023/08/28 06:47:20;;;;;;;19.73;19.08;;;16.40;99.90;;;;;;5107673;28;20228;-65
2023/08/28 06:49:48;;;;;;;23.03;22.23;;;16.40;99.90;;;;;;5092848;28;20222;-65
2023/08/28 06:52:14;;;;;;;22.73;21.93;;;16.40;99.90;;;;;;5096405;28;20205;-64
2023/08/28 06:54:41;;;;;;;24.57;23.73;;;16.40;99.90;;;;;;5094757;28;20285;-66
2023/08/28 06:57:08;;;;;;;22.10;21.30;;;16.30;99.90;;;;;;5094378;28;20234;-65
2023/08/28 06:59:35;;;;;;;22.53;21.73;;;16.30;99.90;;;;;;5096743;28;20209;-66
2023/08/28 07:02:02;;;;;;;24.40;23.57;;;16.40;99.90;;;;;;5097039;28;20201;-65
2023/08/28 07:04:30;;;;;;;22.87;22.07;;;16.40;99.90;;;;;;5093246;28;20210;-65
2023/08/28 07:06:57;;;;;;;23.87;23.03;;;16.40;99.90;;;;;;5090841;28;20228;-64
2023/08/28 07:09:24;;;;;;;22.53;21.73;;;16.50;99.90;;;;;;5093831;28;20225;-65
2023/08/28 07:11:53;;;;;;;22.53;21.73;;;16.60;99.90;;;;;;5093680;28;20217;-64
2023/08/28 07:14:19;;;;;;;19.37;18.70;;;16.70;99.90;;;;;;5098111;28;20212;-66
2023/08/28 07:16:46;;;;;;;20.67;19.97;;;16.80;99.90;;;;;;5100047;28;20716;-65
2023/08/28 07:19:13;;;;;;;22.10;21.33;;;16.90;99.90;;;;;;5093746;28;20226;-66
2023/08/28 07:21:42;;;;;;;21.73;21.00;;;16.90;99.90;;;;;;5082746;28;20203;-65
2023/08/28 07:24:09;;;;;;;22.60;21.83;;;16.90;99.90;;;;;;5092866;28;20206;-65
2023/08/28 07:26:36;;;;;;;20.90;20.20;;;16.80;99.90;;;;;;5093888;28;20242;-65
2023/08/28 07:29:03;;;;;;;20.20;19.50;;;16.80;99.90;;;;;;5093915;28;20214;-66
2023/08/28 07:31:30;;;;;;;20.87;20.17;;;16.80;99.90;;;;;;5091602;28;20216;-66
2023/08/28 07:33:59;;;;;;;19.87;19.17;;;16.90;99.90;;;;;;5089517;28;20199;-65
2023/08/28 07:36:25;;;;;;;18.47;17.83;;;16.90;99.90;;;;;;5093276;28;20206;-64
2023/08/28 07:38:54;;;;;;;19.20;18.50;;;17.00;99.90;;;;;;5089999;28;20235;-64
2023/08/28 07:41:20;;;;;;;17.60;17.00;;;16.90;99.90;;;;;;5090958;28;20199;-65
2023/08/28 07:43:47;;;;;;;20.50;19.80;;;16.90;99.90;;;;;;5103294;28;20270;-65
2023/08/28 07:46:14;;;;;;;19.30;18.60;;;16.80;99.90;;;;;;5099957;28;20195;-65
2023/08/28 07:48:41;;;;;;;19.30;18.60;;;16.80;99.90;;;;;;5093853;22;20234;-64
2023/08/28 07:51:10;;;;;;;21.47;20.77;;;16.90;99.90;;;;;;5049199;28;20579;-64
2023/08/28 07:53:38;;;;;;;18.13;17.50;;;16.90;99.90;;;;;;5051478;28;20210;-62
2023/08/28 07:56:06;;;;;;;19.40;18.73;;;16.80;99.90;;;;;;5049620;28;20231;-67
2023/08/28 07:58:34;;;;;;;18.70;18.03;;;16.80;99.90;;;;;;5051377;28;20748;-65
2023/08/28 08:01:00;;;;;;;19.53;18.83;;;16.90;99.90;;;;;;5067984;28;20295;-66
2023/08/28 08:03:31;;;;;;;19.33;18.63;;;16.90;99.90;;;;;;5066105;28;20286;-63
2023/08/28 08:05:58;;;;;;;21.20;20.43;;;16.90;99.90;;;;;;5051499;28;20656;-66
2023/08/28 08:08:25;;;;;;;18.00;17.40;;;16.80;99.90;;;;;;5052775;28;20231;-66
2023/08/28 08:10:53;;;;;;;18.67;18.03;;;16.80;99.90;;;;;;5052960;28;20196;-63
2023/08/28 08:13:22;;;;;;;19.53;18.83;;;16.90;99.90;;;;;;5061112;28;20686;-66
2023/08/28 08:15:48;;;;;;;19.83;19.13;;;17.00;99.90;;;;;;5061171;28;20220;-64
2023/08/28 08:18:15;;;;;;;21.57;20.83;;;17.00;99.90;;;;;;5055537;28;20224;-65
2023/08/28 08:20:42;;;;;;;19.53;18.83;;;16.90;99.90;;;;;;5055351;28;20296;-65
2023/08/28 08:23:09;;;;;;;19.50;18.80;;;17.00;99.90;;;;;;5052006;28;20215;-65
2023/08/28 08:25:36;;;;;;;20.57;19.87;;;17.00;99.90;;;;;;5055866;28;20195;-66
2023/08/28 08:28:03;;;;;;;19.63;18.93;;;17.10;99.90;;;;;;5058183;28;20294;-65
2023/08/28 08:30:31;;;;;;;20.27;19.57;;;17.10;99.90;;;;;;5063061;28;20203;-65
2023/08/28 08:32:58;;;;;;;18.93;18.23;;;17.20;99.90;;;;;;5057115;28;20229;-65
2023/08/28 08:35:25;;;;;;;16.43;15.87;;;17.20;99.90;;;;;;5067238;28;20196;-66
2023/08/28 08:37:53;;;;;;;16.43;15.87;;;17.20;99.90;;;;;;5066375;28;20219;-65
2023/08/28 08:40:24;;;;;;;16.97;16.37;;;17.30;99.90;;;;;;5052995;28;20196;-67
2023/08/28 08:42:51;;;;;;;16.00;15.43;;;17.30;99.90;;;;;;5052387;28;20694;-65
2023/08/28 08:45:17;;;;;;;17.77;17.17;;;17.30;99.90;;;;;;5051329;28;20204;-65
2023/08/28 08:47:48;;;;;;;15.70;15.20;;;17.30;99.90;;;;;;5057215;28;20234;-67
2023/08/28 08:50:19;;;;;;;14.23;13.73;;;17.30;99.90;;;;;;5061235;28;20207;-66
2023/08/28 08:52:48;;;;;;;14.70;14.20;;;17.20;99.90;;;;;;5063624;28;20286;-65
2023/08/28 08:55:24;;;;;;;15.40;14.83;;;17.30;99.90;;;;;;5058103;28;20231;-65
2023/08/28 08:57:55;;;;;;;14.20;13.60;;;17.30;99.90;;;;;;5061700;28;20220;-65
2023/08/28 09:00:22;;;;;;;16.33;15.77;;;17.30;99.90;;;;;;5062189;28;20690;-63
2023/08/28 09:02:53;;;;;;;17.03;16.43;;;17.20;99.90;;;;;;5060110;28;20712;-66
2023/08/28 09:05:20;;;;;;;15.47;14.93;;;17.10;99.90;;;;;;5064144;28;20204;-67
2023/08/28 09:07:47;;;;;;;14.73;14.23;;;17.10;99.90;;;;;;5056371;28;20200;-67
2023/08/28 09:10:14;;;;;;;14.52;14.02;;;17.20;99.90;;;;;;5058328;28;20239;-66
2023/08/28 09:12:42;;;;;;;14.50;14.00;;;17.30;99.90;;;;;;5052500;28;20203;-66
2023/08/28 09:15:10;;;;;;;16.33;15.73;;;17.30;99.90;;;;;;5054882;28;20231;-64
2023/08/28 09:17:39;;;;;;;14.27;13.77;;;17.40;99.90;;;;;;5057092;28;20680;-67
2023/08/28 09:20:16;;;;;;;14.83;14.23;;;17.40;99.90;;;;;;5054758;28;20220;-66
2023/08/28 09:22:47;;;;;;;13.37;12.93;;;17.40;99.90;;;;;;5058251;28;20200;-65
2023/08/28 09:25:14;;;;;;;13.07;12.67;;;17.50;99.90;;;;;;5053023;28;20261;-67
2023/08/28 09:27:43;;;;;;;14.07;13.60;;;17.50;99.90;;;;;;5058355;28;20196;-66
2023/08/28 09:30:11;;;;;;;14.70;14.20;;;17.50;99.90;;;;;;5056151;28;20714;-67
2023/08/28 09:32:46;;;;;;;13.77;13.30;;;17.60;99.90;;;;;;5055067;28;20207;-64
2023/08/28 09:35:15;;;;;;;13.80;13.30;;;17.70;99.90;;;;;;5066123;28;20234;-63
2023/08/28 09:37:42;;;;;;;12.90;12.50;;;17.80;99.90;;;;;;5055265;28;20258;-66
2023/08/28 09:40:10;;;;;;;13.97;13.47;;;17.90;99.90;;;;;;5062664;28;20225;-64
2023/08/28 09:42:37;;;;;;;14.23;13.73;;;17.90;99.90;;;;;;5065257;28;20195;-66
2023/08/28 09:45:07;;;;;;;17.70;17.00;;;17.90;99.90;;;;;;5068163;28;20287;-65
2023/08/28 09:47:34;;;;;;;17.57;16.90;;;17.90;99.90;;;;;;5053730;28;20204;-64
2023/08/28 09:50:03;;;;;;;19.40;18.70;;;17.80;99.90;;;;;;5054845;28;20695;-66
2023/08/28 09:52:31;;;;;;;19.70;19.03;;;17.70;99.90;;;;;;5054440;28;20642;-67
2023/08/28 09:55:04;;;;;;;14.63;14.13;;;17.70;99.90;;;;;;5054882;28;20203;-65
2023/08/28 09:57:30;;;;;;;16.40;15.80;;;17.70;99.90;;;;;;5057061;28;20227;-64
2023/08/28 09:59:57;;;;;;;18.27;17.60;;;17.80;99.90;;;;;;5064262;28;20227;-66
2023/08/28 10:02:26;;;;;;;18.23;17.63;;;17.90;99.90;;;;;;5068947;28;20210;-66
2023/08/28 10:04:53;;;;;;;30.63;29.33;;;17.90;99.90;;;;;;5066780;28;20230;-66
2023/08/28 10:07:24;;;;;;;16.37;15.77;;;17.90;99.90;;;;;;5047903;28;20301;-65
2023/08/28 10:09:54;;;;;;;14.20;13.70;;;18.00;99.90;;;;;;5060253;28;20227;-63
2023/08/28 10:12:23;;;;;;;16.40;15.80;;;18.00;99.90;;;;;;5055111;28;20204;-64
2023/08/28 10:14:53;;;;;;;21.07;20.27;;;18.10;99.90;;;;;;5055884;28;20196;-66
2023/08/28 10:17:23;;;;;;;17.83;17.23;;;18.10;99.90;;;;;;5059398;28;20232;-65
2023/08/28 10:19:56;;;;;;;21.10;20.30;;;18.10;99.90;;;;;;5061872;28;20234;-65
2023/08/28 10:22:24;;;;;;;20.00;19.30;;;18.10;99.90;;;;;;5058208;28;20361;-65
2023/08/28 10:24:56;;;;;;;18.27;17.63;;;18.10;99.90;;;;;;5059814;28;20387;-65
2023/08/28 10:27:23;;;;;;;33.40;32.10;;;18.40;99.90;;;;;;5055452;28;20199;-66
2023/08/28 10:29:50;;;;;;;16.03;15.47;;;18.70;99.90;;;;;;5061989;28;20306;-62
2023/08/28 10:32:19;;;;;;;11.47;11.07;;;18.90;99.90;;;;;;5065816;28;20670;-65
2023/08/28 10:34:47;;;;;;;11.40;11.00;;;19.00;99.90;;;;;;5062341;28;20311;-66
2023/08/28 10:37:14;;;;;;;17.03;16.43;;;19.30;99.90;;;;;;5056434;28;20235;-67
2023/08/28 10:39:42;;;;;;;25.33;24.13;;;19.40;99.90;;;;;;5061414;28;20227;-65
2023/08/28 10:42:15;;;;;;;11.93;11.47;;;19.20;99.90;;;;;;5054873;28;20207;-67
2023/08/28 10:44:43;;;;;;;11.98;11.57;;;19.10;99.90;;;;;;5056506;28;20375;-68
2023/08/28 10:47:15;;;;;;;12.30;11.90;;;19.30;99.90;;;;;;5054565;28;20202;-66
2023/08/28 10:49:45;;;;;;;13.70;13.20;;;19.40;99.90;;;;;;5054958;28;20277;-66
2023/08/28 10:52:19;;;;;;;13.07;12.63;;;19.30;99.90;;;;;;5057319;28;20210;-65
2023/08/28 10:54:46;;;;;;;23.57;22.57;;;19.10;99.90;;;;;;5055466;28;20245;-67
2023/08/28 10:57:24;;;;;;;12.13;11.63;;;19.30;99.90;;;;;;5057634;28;20227;-63
2023/08/28 10:59:51;;;;;;;11.60;11.20;;;19.30;99.90;;;;;;5061333;28;20224;-65
2023/08/28 11:02:20;;;;;;;20.03;19.23;;;19.30;99.90;;;;;;5066340;28;20204;-66
2023/08/28 11:04:47;;;;;;;12.00;11.50;;;19.40;99.90;;;;;;5056245;28;20231;-67
2023/08/28 11:07:47;;;;;;;14.83;14.23;;;19.30;99.90;;;;;;5057410;28;20196;-65
2023/08/28 11:10:19;;;;;;;12.33;11.93;;;19.30;99.90;;;;;;5059095;28;21483;-66
2023/08/28 11:12:56;;;;;;;13.63;13.13;;;19.30;99.90;;;;;;5061415;28;20267;-66
2023/08/28 11:15:27;;;;;;;12.57;12.17;;;19.40;99.90;;;;;;5073757;28;20218;-67
2023/08/28 11:18:29;;;;;;;13.30;12.80;;;19.20;99.90;;;;;;5081200;28;20233;-67
2023/08/28 11:20:58;;;;;;;12.00;11.60;;;19.40;99.90;;;;;;5062235;28;20226;-66
2023/08/28 11:23:33;;;;;;;12.30;11.90;;;19.40;99.90;;;;;;5054911;28;20222;-67
2023/08/28 11:26:03;;;;;;;15.37;14.77;;;19.30;99.90;;;;;;5062424;28;20221;-65
2023/08/28 11:28:43;;;;;;;20.17;19.37;;;19.10;99.90;;;;;;5056651;28;20303;-65
2023/08/28 11:31:10;;;;;;;10.57;10.17;;;19.00;99.90;;;;;;5049196;28;20195;-66
2023/08/28 11:33:38;;;;;;;12.70;12.20;;;19.10;99.90;;;;;;5053516;28;20310;-66
2023/08/28 11:36:06;;;;;;;11.53;11.13;;;19.20;99.90;;;;;;5053601;28;20208;-66
2023/08/28 11:38:33;;;;;;;35.40;33.50;;;19.10;99.90;;;;;;5054275;28;20227;-66
2023/08/28 11:41:04;;;;;;;11.80;11.30;;;19.00;99.90;;;;;;5053959;28;20204;-61
2023/08/28 11:43:35;;;;;;;57.23;53.90;;;19.00;99.90;;;;;;5053637;28;20262;-66
2023/08/28 11:46:03;;;;;;;33.57;31.77;;;19.00;99.90;;;;;;5054072;28;20208;-66
2023/08/28 11:48:34;;;;;;;10.87;10.47;;;19.00;99.90;;;;;;5053775;28;20293;-66
2023/08/28 11:51:01;;;;;;;27.47;26.03;;;19.00;99.90;;;;;;5054658;28;20219;-66
2023/08/28 11:53:32;;;;;;;30.37;28.77;;;19.00;99.90;;;;;;5054135;28;20215;-67
2023/08/28 11:56:04;;;;;;;10.10;9.80;;;18.80;99.90;;;;;;5054044;28;20204;-67
2023/08/28 11:58:34;;;;;;;11.47;11.07;;;18.80;99.90;;;;;;5054671;28;20234;-65
2023/08/28 12:01:05;;;;;;;11.32;10.90;;;18.80;99.90;;;;;;5053955;28;20203;-68
2023/08/28 12:03:32;;;;;;;9.43;9.13;;;18.80;99.90;;;;;;5054440;28;20204;-68
2023/08/28 12:06:06;;;;;;;9.90;9.60;;;18.80;99.90;;;;;;5060060;28;20700;-66
2023/08/28 12:08:33;;;;;;;26.73;25.43;;;18.70;99.90;;;;;;5059080;28;20216;-66
2023/08/28 12:11:01;;;;;;;11.90;11.47;;;18.70;99.90;;;;;;5059456;28;20218;-66
2023/08/28 12:13:28;;;;;;;11.47;11.07;;;18.60;99.90;;;;;;5055870;28;20200;-66
2023/08/28 12:16:14;;;;;;;28.90;27.30;;;18.60;99.90;;;;;;5053708;28;20614;-66
2023/08/28 12:18:45;;;;;;;9.40;9.10;;;18.60;99.90;;;;;;5053346;28;20246;-66
2023/08/28 12:21:12;;;;;;;10.37;9.97;;;18.50;99.90;;;;;;5057141;28;20283;-65
2023/08/28 12:23:50;;;;;;;11.87;11.47;;;18.50;99.90;;;;;;5052517;28;20681;-65
2023/08/28 12:26:18;;;;;;;14.33;13.73;;;18.50;99.90;;;;;;5053571;28;20294;-66
2023/08/28 12:28:45;;;;;;;9.70;9.40;;;18.60;99.90;;;;;;5052775;28;20585;-66
2023/08/28 12:31:13;;;;;;;9.60;9.30;;;18.50;99.90;;;;;;5052527;28;20648;-66
2023/08/28 12:33:41;;;;;;;10.63;10.23;;;18.60;99.90;;;;;;5054328;28;20200;-66
2023/08/28 12:36:08;;;;;;;10.77;10.27;;;18.60;99.90;;;;;;5044637;28;20211;-63
2023/08/28 12:38:47;;;;;;;9.67;9.37;;;18.60;99.90;;;;;;5052524;28;20230;-65
2023/08/28 12:41:15;;;;;;;9.40;9.10;;;18.70;99.90;;;;;;5052735;28;20203;-65
2023/08/28 12:43:41;;;;;;;9.17;8.87;;;18.80;99.90;;;;;;5053423;28;20303;-66
2023/08/28 12:46:09;;;;;;;9.50;9.17;;;18.90;99.90;;;;;;5055100;28;20208;-65
2023/08/28 12:48:38;;;;;;;28.13;26.77;;;18.80;99.90;;;;;;5052702;28;20282;-66
2023/08/28 12:51:05;;;;;;;13.27;12.77;;;18.80;99.90;;;;;;5052522;28;20212;-64
2023/08/28 12:53:31;;;;;;;9.17;8.87;;;18.80;99.90;;;;;;5052900;28;20586;-63
2023/08/28 12:55:58;;;;;;;9.93;9.60;;;18.80;99.90;;;;;;5052551;28;20212;-65
2023/08/28 12:58:25;;;;;;;15.80;15.20;;;18.90;99.90;;;;;;5052598;28;20306;-67
2023/08/28 13:00:52;;;;;;;10.30;10.00;;;18.90;99.90;;;;;;5052163;28;20219;-64
2023/08/28 13:03:19;;;;;;;19.10;18.23;;;18.80;99.90;;;;;;5053957;28;20262;-66
2023/08/28 13:05:48;;;;;;;10.10;9.70;;;18.80;99.90;;;;;;5053282;28;20207;-67
2023/08/28 13:08:15;;;;;;;16.43;15.70;;;18.70;99.90;;;;;;5053300;28;20278;-65
2023/08/28 13:10:42;;;;;;;13.13;12.63;;;18.60;99.90;;;;;;5052421;28;20228;-65